createdAt,value
2019-02-28T00:00:32.384Z,70.24
2019-02-28T00:03:00.856Z,69.47
2019-02-28T00:05:29.237Z,69.20
2019-02-28T00:07:57.688Z,68.82
2019-02-28T00:10:28.085Z,67.97
2019-02-28T00:12:56.182Z,67.69
2019-02-28T00:15:24.566Z,69.18
2019-02-28T00:17:52.948Z,69.90
2019-02-28T00:20:21.432Z,70.31
2019-02-28T00:22:49.838Z,71.19
2019-02-28T00:25:18.223Z,72.40
2019-02-28T00:27:49.014Z,72.73
2019-02-28T00:30:16.898Z,73.07
2019-02-28T00:32:45.349Z,71.78
2019-02-28T00:35:14.123Z,71.50
2019-02-28T00:37:42.541Z,71.09
2019-02-28T00:40:11.518Z,70.64
2019-02-28T00:42:39.895Z,70.13
2019-02-28T00:45:13.902Z,70.11
2019-02-28T00:47:42.283Z,71.53
2019-02-28T00:50:10.846Z,71.00
2019-02-28T00:52:39.309Z,70.95
2019-02-28T00:55:10.468Z,69.85
2019-02-28T00:57:38.896Z,70.52
2019-02-28T01:00:10.609Z,70.98
2019-02-28T01:02:39.350Z,71.93
2019-02-28T01:05:07.988Z,72.34
2019-02-28T01:07:36.392Z,72.79
2019-02-28T01:10:10.919Z,72.63
2019-02-28T01:12:39.583Z,71.26
2019-02-28T01:15:13.515Z,71.15
2019-02-28T01:17:41.921Z,71.37
2019-02-28T01:20:15.012Z,71.53
2019-02-28T01:22:41.149Z,71.57
2019-02-28T01:25:11.980Z,71.17
2019-02-28T01:27:40.369Z,70.46
2019-02-28T01:30:11.196Z,69.64
2019-02-28T01:32:39.584Z,69.44
2019-02-28T01:35:08.627Z,69.74
2019-02-28T01:37:37.016Z,69.42
2019-02-28T01:40:10.162Z,70.58
2019-02-28T01:42:38.540Z,72.88
2019-02-28T01:45:09.772Z,72.82
2019-02-28T01:47:39.366Z,73.45
2019-02-28T01:50:09.992Z,74.22
2019-02-28T01:52:44.211Z,73.45
2019-02-28T01:55:10.413Z,72.76
2019-02-28T01:57:42.308Z,72.14
2019-02-28T02:00:18.705Z,70.72
2019-02-28T02:02:47.166Z,70.85
2019-02-28T02:05:16.822Z,71.89
2019-02-28T02:07:45.659Z,72.49
2019-02-28T02:10:21.400Z,73.25
2019-02-28T02:12:51.163Z,74.29
2019-02-28T02:15:20.091Z,74.68
2019-02-28T02:17:48.564Z,74.20
2019-02-28T02:20:17.488Z,72.65
2019-02-28T02:22:45.889Z,70.67
2019-02-28T02:25:14.535Z,70.09
2019-02-28T02:27:42.993Z,71.50
2019-02-28T02:30:17.106Z,72.33
2019-02-28T02:32:45.576Z,72.82
2019-02-28T02:35:15.100Z,73.85
2019-02-28T02:37:44.012Z,75.02
2019-02-28T02:40:16.822Z,75.73
2019-02-28T02:42:48.638Z,75.82
2019-02-28T02:45:15.702Z,76.21
2019-02-28T02:47:44.145Z,75.90
2019-02-28T02:50:14.099Z,75.90
2019-02-28T02:52:42.554Z,75.20
2019-02-28T02:55:11.283Z,74.62
2019-02-28T02:57:39.678Z,73.77
2019-02-28T03:00:18.770Z,72.77
2019-02-28T03:02:47.452Z,73.83
2019-02-28T03:05:15.903Z,75.15
2019-02-28T03:07:44.616Z,73.80
2019-02-28T03:10:17.974Z,72.88
2019-02-28T03:12:47.186Z,74.18
2019-02-28T03:15:16.820Z,75.23
2019-02-28T03:17:47.145Z,75.01
2019-02-28T03:20:15.882Z,73.52
2019-02-28T03:22:44.256Z,72.63
2019-02-28T03:25:14.303Z,70.95
2019-02-28T03:27:42.734Z,70.51
2019-02-28T03:30:27.753Z,69.61
2019-02-28T03:32:47.317Z,69.82
2019-02-28T03:35:16.015Z,70.73
2019-02-28T03:37:44.396Z,71.43
2019-02-28T03:40:14.192Z,72.28
2019-02-28T03:42:42.586Z,72.80
2019-02-28T03:45:13.433Z,73.46
2019-02-28T03:47:41.825Z,74.03
2019-02-28T03:50:11.562Z,74.92
2019-02-28T03:52:44.017Z,75.57
2019-02-28T03:55:15.061Z,76.56
2019-02-28T03:57:43.877Z,76.03
2019-02-28T04:00:20.676Z,76.75
2019-02-28T04:02:56.649Z,76.74
2019-02-28T04:05:26.470Z,76.69
2019-02-28T04:07:53.453Z,75.83
2019-02-28T04:10:22.141Z,75.31
2019-02-28T04:12:50.180Z,74.94
2019-02-28T04:15:19.887Z,74.89
2019-02-28T04:17:48.562Z,76.21
2019-02-28T04:20:17.028Z,74.73
2019-02-28T04:22:45.419Z,73.15
2019-02-28T04:25:13.812Z,71.68
2019-02-28T04:27:42.214Z,71.05
2019-02-28T04:30:13.048Z,72.21
2019-02-28T04:32:41.607Z,72.23
2019-02-28T04:35:10.630Z,73.34
2019-02-28T04:37:44.615Z,72.82
2019-02-28T04:40:10.984Z,72.93
2019-02-28T04:42:39.409Z,73.37
2019-02-28T04:45:14.834Z,72.70
2019-02-28T04:47:43.230Z,72.14
2019-02-28T04:50:12.667Z,74.02
2019-02-28T04:52:46.357Z,75.04
2019-02-28T04:55:11.731Z,76.58
2019-02-28T04:57:40.135Z,77.28
2019-02-28T05:00:13.448Z,77.65
2019-02-28T05:02:41.852Z,77.32
2019-02-28T05:05:12.648Z,77.14
2019-02-28T05:07:40.467Z,76.91
2019-02-28T05:10:12.304Z,76.89
2019-02-28T05:12:41.201Z,76.41
2019-02-28T05:15:11.720Z,74.67
2019-02-28T05:17:40.111Z,74.44
2019-02-28T05:20:11.912Z,74.16
2019-02-28T05:22:40.794Z,76.36
2019-02-28T05:25:10.621Z,75.98
2019-02-28T05:27:39.266Z,74.55
2019-02-28T05:30:19.488Z,73.77
2019-02-28T05:32:45.836Z,73.16
2019-02-28T05:35:14.232Z,72.36
2019-02-28T05:37:46.946Z,72.82
2019-02-28T05:40:16.509Z,73.99
2019-02-28T05:42:44.906Z,75.01
2019-02-28T05:45:15.789Z,75.30
2019-02-28T05:47:46.957Z,74.74
2019-02-28T05:50:16.737Z,74.76
2019-02-28T05:52:44.832Z,74.63
2019-02-28T05:55:13.395Z,73.87
2019-02-28T05:57:44.799Z,73.04
2019-02-28T06:00:16.138Z,73.40
2019-02-28T06:02:44.549Z,74.91
2019-02-28T06:05:13.002Z,76.19
2019-02-28T06:07:41.341Z,76.51
2019-02-28T06:10:12.055Z,76.29
2019-02-28T06:12:43.805Z,75.32
2019-02-28T06:15:16.663Z,75.37
2019-02-28T06:17:45.131Z,75.79
2019-02-28T06:20:16.412Z,75.76
2019-02-28T06:22:44.482Z,75.05
2019-02-28T06:25:22.195Z,74.70
2019-02-28T06:27:49.094Z,73.59
2019-02-28T06:30:16.601Z,73.79
2019-02-28T06:32:44.980Z,75.17
2019-02-28T06:35:18.506Z,76.01
2019-02-28T06:37:43.794Z,76.56
2019-02-28T06:40:15.951Z,77.23
2019-02-28T06:42:46.677Z,77.66
2019-02-28T06:45:18.661Z,76.81
2019-02-28T06:47:49.735Z,77.53
2019-02-28T06:50:17.453Z,78.05
2019-02-28T06:52:45.999Z,76.73
2019-02-28T06:55:25.016Z,75.84
2019-02-28T06:57:53.982Z,75.97
2019-02-28T07:00:22.462Z,74.89
2019-02-28T07:02:50.885Z,73.58
2019-02-28T07:05:24.336Z,75.02
2019-02-28T07:07:51.886Z,77.24
2019-02-28T07:10:19.513Z,78.14
2019-02-28T07:12:48.385Z,78.76
2019-02-28T07:15:16.880Z,77.15
2019-02-28T07:17:46.454Z,73.41
2019-02-28T07:20:19.202Z,71.42
2019-02-28T07:22:47.581Z,70.07
2019-02-28T07:25:16.058Z,70.75
2019-02-28T07:27:44.771Z,69.32
2019-02-28T07:30:20.555Z,68.59
2019-02-28T07:32:48.963Z,68.87
2019-02-28T07:35:17.354Z,70.80
2019-02-28T07:37:45.766Z,70.29
2019-02-28T07:40:16.185Z,69.80
2019-02-28T07:42:45.606Z,69.27
2019-02-28T07:45:15.059Z,70.29
2019-02-28T07:47:43.649Z,70.64
2019-02-28T07:50:14.405Z,71.02
2019-02-28T07:52:42.875Z,70.07
2019-02-28T07:55:14.166Z,70.18
2019-02-28T07:57:42.598Z,69.09
2019-02-28T08:00:19.140Z,69.81
2019-02-28T08:02:47.597Z,68.40
2019-02-28T08:05:16.164Z,67.03
2019-02-28T08:07:50.275Z,63.76
2019-02-28T08:10:20.389Z,60.70
2019-02-28T08:12:48.782Z,59.23
2019-02-28T08:15:22.750Z,59.32
2019-02-28T08:17:51.520Z,58.23
2019-02-28T08:20:20.863Z,59.51
2019-02-28T08:22:49.480Z,59.08
2019-02-28T08:25:18.217Z,58.47
2019-02-28T08:27:46.785Z,58.63
2019-02-28T08:30:20.752Z,58.53
2019-02-28T08:32:49.229Z,58.38
2019-02-28T08:35:17.622Z,57.62
2019-02-28T08:37:46.697Z,58.00
2019-02-28T08:40:17.790Z,56.98
2019-02-28T08:42:46.167Z,57.40
2019-02-28T08:45:15.915Z,57.98
2019-02-28T08:47:45.359Z,57.87
2019-02-28T08:50:21.506Z,57.91
2019-02-28T08:52:53.753Z,57.69
2019-02-28T08:55:28.677Z,58.26
2019-02-28T08:57:56.915Z,57.62
2019-02-28T09:00:24.017Z,56.69
2019-02-28T09:02:53.722Z,55.79
2019-02-28T09:05:26.087Z,55.48
2019-02-28T09:07:53.137Z,56.12
2019-02-28T09:10:23.079Z,55.47
2019-02-28T09:12:51.853Z,56.15
2019-02-28T09:15:21.011Z,56.63
2019-02-28T09:17:49.511Z,56.65
2019-02-28T09:20:18.080Z,57.42
2019-02-28T09:22:46.533Z,57.51
2019-02-28T09:25:23.118Z,57.92
2019-02-28T09:27:51.819Z,58.57
2019-02-28T09:30:29.653Z,59.20
2019-02-28T09:32:59.227Z,59.05
2019-02-28T09:35:27.613Z,59.31
2019-02-28T09:37:56.380Z,59.04
2019-02-28T09:40:25.784Z,58.51
2019-02-28T09:42:55.284Z,58.82
2019-02-28T09:45:26.681Z,59.68
2019-02-28T09:47:55.076Z,59.76
2019-02-28T09:50:23.934Z,59.79
2019-02-28T09:52:52.724Z,60.53
2019-02-28T09:55:21.126Z,60.93
2019-02-28T09:57:53.692Z,60.52
2019-02-28T10:00:24.007Z,60.99
2019-02-28T10:02:53.081Z,60.44
2019-02-28T10:05:22.317Z,61.93
2019-02-28T10:07:52.895Z,61.75
2019-02-28T10:10:26.494Z,61.05
2019-02-28T10:12:56.874Z,61.34
2019-02-28T10:15:25.633Z,61.66
2019-02-28T10:17:54.323Z,62.80
2019-02-28T10:20:27.093Z,62.93
2019-02-28T10:22:55.425Z,62.69
2019-02-28T10:25:23.923Z,62.06
2019-02-28T10:27:54.501Z,62.01
2019-02-28T10:30:31.345Z,61.62
2019-02-28T10:32:54.761Z,59.61
2019-02-28T10:35:23.485Z,57.65
2019-02-28T10:37:56.984Z,56.59
2019-02-28T10:40:27.817Z,55.49
2019-02-28T10:42:56.462Z,54.05
2019-02-28T10:45:25.633Z,52.91
2019-02-28T10:47:54.377Z,53.21
2019-02-28T10:50:33.228Z,51.40
2019-02-28T10:53:04.050Z,50.87
2019-02-28T10:55:31.286Z,50.11
2019-02-28T10:57:59.756Z,49.52
2019-02-28T11:00:38.763Z,49.06
2019-02-28T11:03:07.162Z,48.44
2019-02-28T11:05:41.595Z,48.88
2019-02-28T11:08:18.319Z,47.36
2019-02-28T11:10:46.445Z,47.61
2019-02-28T11:13:18.250Z,46.15
2019-02-28T11:15:48.401Z,45.94
2019-02-28T11:18:17.190Z,46.09
2019-02-28T11:20:46.339Z,45.76
2019-02-28T11:23:15.863Z,46.62
2019-02-28T11:25:44.358Z,45.49
2019-02-28T11:28:14.128Z,45.95
2019-02-28T11:30:45.346Z,46.67
2019-02-28T11:33:14.500Z,46.91
2019-02-28T11:35:43.273Z,46.17
2019-02-28T11:38:12.244Z,45.52
2019-02-28T11:40:43.814Z,45.38
2019-02-28T11:43:11.378Z,46.04
2019-02-28T11:45:42.530Z,46.16
2019-02-28T11:48:18.664Z,47.07
2019-02-28T11:50:44.934Z,46.28
2019-02-28T11:53:13.646Z,45.78
2019-02-28T11:55:42.127Z,46.10
2019-02-28T11:58:16.551Z,45.51
2019-02-28T12:00:41.221Z,46.19
2019-02-28T12:03:09.787Z,45.40
2019-02-28T12:05:38.217Z,45.02
2019-02-28T12:08:10.304Z,44.51
2019-02-28T12:10:37.127Z,45.01
2019-02-28T12:13:05.941Z,44.47
2019-02-28T12:15:38.231Z,44.93
2019-02-28T12:18:06.371Z,45.13
2019-02-28T12:20:35.171Z,44.95
2019-02-28T12:23:03.904Z,45.87
2019-02-28T12:25:34.136Z,44.67
2019-02-28T12:28:06.291Z,45.56
2019-02-28T12:30:34.230Z,44.96
2019-02-28T12:33:02.634Z,45.48
2019-02-28T12:35:37.399Z,45.78
2019-02-28T12:38:01.334Z,45.44
2019-02-28T12:40:34.843Z,45.17
2019-02-28T12:43:08.666Z,45.21
2019-02-28T12:45:41.456Z,44.94
2019-02-28T12:48:09.905Z,45.45
2019-02-28T12:50:38.427Z,45.73
2019-02-28T12:53:07.335Z,46.32
2019-02-28T12:55:39.070Z,46.83
2019-02-28T12:58:05.870Z,46.36
2019-02-28T13:00:42.571Z,46.75
2019-02-28T13:03:12.716Z,46.58
2019-02-28T13:05:41.186Z,46.49
2019-02-28T13:08:09.667Z,45.59
2019-02-28T13:10:38.098Z,45.43
2019-02-28T13:13:07.792Z,44.89
2019-02-28T13:15:36.408Z,44.94
2019-02-28T13:18:09.142Z,44.48
2019-02-28T13:20:38.024Z,44.05
2019-02-28T13:23:06.553Z,43.62
2019-02-28T13:25:34.974Z,43.57
2019-02-28T13:28:04.897Z,43.93
2019-02-28T13:30:33.391Z,44.21
2019-02-28T13:33:06.537Z,44.76
2019-02-28T13:35:37.429Z,45.07
2019-02-28T13:38:06.088Z,46.08
2019-02-28T13:40:34.599Z,47.43
2019-02-28T13:43:03.119Z,48.36
2019-02-28T13:45:32.469Z,49.07
2019-02-28T13:48:09.895Z,49.29
2019-02-28T13:50:38.487Z,49.79
2019-02-28T13:53:17.431Z,50.80
2019-02-28T13:55:38.709Z,51.56
2019-02-28T13:58:07.251Z,51.04
2019-02-28T14:00:43.616Z,51.49
2019-02-28T14:03:10.637Z,51.64
2019-02-28T14:05:41.530Z,52.54
2019-02-28T14:08:11.195Z,52.52
2019-02-28T14:10:39.688Z,53.36
2019-02-28T14:13:08.176Z,53.68
2019-02-28T14:15:39.477Z,53.99
2019-02-28T14:18:10.956Z,54.58
2019-02-28T14:20:38.580Z,55.42
2019-02-28T14:23:07.013Z,55.74
2019-02-28T14:25:36.347Z,56.11
2019-02-28T14:28:05.544Z,56.48
2019-02-28T14:30:34.360Z,57.06
2019-02-28T14:33:02.794Z,56.86
2019-02-28T14:35:35.149Z,57.26
2019-02-28T14:38:01.774Z,57.37
2019-02-28T14:40:30.162Z,58.01
2019-02-28T14:42:58.594Z,58.03
2019-02-28T14:45:32.358Z,58.15
2019-02-28T14:48:04.081Z,58.27
2019-02-28T14:50:31.671Z,58.36
2019-02-28T14:53:00.088Z,58.80
2019-02-28T14:55:29.295Z,58.91
2019-02-28T14:57:59.834Z,59.25
2019-02-28T15:00:31.447Z,59.63
2019-02-28T15:03:02.856Z,60.08
2019-02-28T15:06:11.193Z,60.24
2019-02-28T15:08:39.606Z,61.58
2019-02-28T15:11:10.222Z,62.10
2019-02-28T15:13:40.184Z,62.42
2019-02-28T15:16:08.594Z,62.59
2019-02-28T15:18:37.215Z,63.09
2019-02-28T15:21:07.545Z,62.97
2019-02-28T15:23:36.131Z,63.26
2019-02-28T15:26:04.616Z,63.24
2019-02-28T15:28:33.030Z,63.29
2019-02-28T15:31:01.591Z,63.02
2019-02-28T15:33:30.530Z,63.40
2019-02-28T15:35:59.569Z,63.33
2019-02-28T15:38:28.059Z,63.19
2019-02-28T15:40:58.768Z,63.36
2019-02-28T15:43:26.595Z,63.32
2019-02-28T15:45:55.022Z,63.00
2019-02-28T15:48:23.427Z,63.25
2019-02-28T15:50:52.714Z,63.03
2019-02-28T15:53:21.404Z,62.98
2019-02-28T15:55:49.816Z,63.25
2019-02-28T15:58:18.215Z,63.39
2019-02-28T16:00:46.676Z,63.41
2019-02-28T16:03:16.778Z,63.19
2019-02-28T16:05:45.273Z,63.19
2019-02-28T16:08:13.728Z,63.41
2019-02-28T16:10:52.626Z,63.71
2019-02-28T16:13:12.266Z,64.03
2019-02-28T16:15:43.207Z,64.08
2019-02-28T16:18:12.848Z,64.47
2019-02-28T16:20:41.233Z,64.30
2019-02-28T16:23:09.671Z,64.29
2019-02-28T16:25:38.911Z,64.27
2019-02-28T16:28:10.666Z,64.04
2019-02-28T16:30:40.725Z,64.13
2019-02-28T16:33:09.127Z,63.89
2019-02-28T16:35:37.534Z,64.22
2019-02-28T16:38:06.530Z,64.26
2019-02-28T16:40:36.172Z,63.84
2019-02-28T16:43:04.637Z,64.47
2019-02-28T16:45:40.513Z,64.75
2019-02-28T16:48:08.041Z,64.58
2019-02-28T16:50:36.580Z,64.51
2019-02-28T16:53:05.748Z,64.90
2019-02-28T16:55:34.292Z,65.29
2019-02-28T16:58:03.082Z,65.48
2019-02-28T17:00:31.908Z,65.28
2019-02-28T17:03:00.373Z,65.39
2019-02-28T17:05:29.134Z,65.58
2019-02-28T17:07:57.641Z,64.96
2019-02-28T17:10:33.174Z,64.98
2019-02-28T17:13:12.127Z,65.09
2019-02-28T17:16:01.556Z,65.30
2019-02-28T17:18:37.456Z,65.45
2019-02-28T17:21:06.197Z,65.87
2019-02-28T17:23:36.871Z,65.85
2019-02-28T17:26:04.743Z,67.05
2019-02-28T17:28:46.645Z,67.15
2019-02-28T17:31:24.968Z,66.67
2019-02-28T17:33:53.430Z,65.77
2019-02-28T17:36:21.895Z,66.34
2019-02-28T17:38:50.366Z,67.05
2019-02-28T17:41:18.772Z,66.71
2019-02-28T17:44:09.693Z,66.41
2019-02-28T17:46:38.102Z,65.53
2019-02-28T17:49:23.305Z,64.76
2019-02-28T17:51:58.538Z,64.53
2019-02-28T17:54:36.301Z,65.45
2019-02-28T17:57:17.692Z,65.82
2019-02-28T18:00:07.151Z,66.69
2019-02-28T18:02:57.464Z,67.68
2019-02-28T18:05:36.476Z,66.22
2019-02-28T18:08:16.754Z,67.31
2019-02-28T18:11:03.350Z,66.79
2019-02-28T18:13:35.157Z,66.64
2019-02-28T18:16:22.710Z,67.29
2019-02-28T18:19:14.824Z,68.80
2019-02-28T18:22:04.429Z,69.53
2019-02-28T18:24:53.444Z,70.52
2019-02-28T18:27:46.792Z,69.95
2019-02-28T18:30:42.671Z,70.19
2019-02-28T18:33:11.068Z,70.71
2019-02-28T18:35:39.569Z,70.24
2019-02-28T18:38:08.245Z,70.68
2019-02-28T18:40:37.459Z,70.88
2019-02-28T18:43:05.933Z,71.42
2019-02-28T18:45:34.399Z,71.46
2019-02-28T18:48:02.831Z,71.46
2019-02-28T18:50:31.241Z,72.45
2019-02-28T18:53:00.641Z,71.89
2019-02-28T18:55:34.949Z,71.72
2019-02-28T18:58:01.472Z,71.99
2019-02-28T19:00:29.942Z,72.39
2019-02-28T19:02:58.446Z,72.38
2019-02-28T19:05:26.843Z,72.10
2019-02-28T19:07:55.257Z,72.03
2019-02-28T19:10:23.761Z,71.87
2019-02-28T19:12:52.416Z,72.08
2019-02-28T19:15:20.821Z,71.59
2019-02-28T19:17:49.226Z,71.96
2019-02-28T19:20:17.626Z,71.52
2019-02-28T19:22:46.476Z,71.60
2019-02-28T19:25:14.876Z,71.59
2019-02-28T19:27:43.593Z,71.65
2019-02-28T19:30:14.780Z,71.42
2019-02-28T19:32:43.170Z,71.27
2019-02-28T19:35:11.646Z,70.60
2019-02-28T19:37:40.196Z,70.30
2019-02-28T19:40:14.988Z,71.11
2019-02-28T19:42:43.393Z,70.77
2019-02-28T19:45:20.547Z,70.96
2019-02-28T19:47:48.938Z,70.42
2019-02-28T19:50:17.347Z,70.67
2019-02-28T19:52:45.776Z,71.00
2019-02-28T19:55:15.202Z,71.17
2019-02-28T19:57:43.649Z,71.54
2019-02-28T20:00:15.201Z,73.17
2019-02-28T20:02:43.662Z,73.74
2019-02-28T20:05:13.323Z,74.94
2019-02-28T20:07:41.725Z,79.05
2019-02-28T20:10:13.359Z,77.51
2019-02-28T20:12:41.865Z,79.01
2019-02-28T20:15:13.644Z,80.05
2019-02-28T20:17:42.118Z,81.27
2019-02-28T20:20:13.990Z,80.89
2019-02-28T20:22:42.452Z,81.14
2019-02-28T20:25:12.696Z,81.33
2019-02-28T20:27:41.181Z,81.19
2019-02-28T20:30:18.377Z,82.07
2019-02-28T20:32:46.858Z,81.56
2019-02-28T20:35:15.493Z,82.79
2019-02-28T20:37:43.955Z,81.64
2019-02-28T20:40:30.550Z,81.31
2019-02-28T20:42:58.940Z,80.88
2019-02-28T20:45:27.410Z,80.64
2019-02-28T20:47:57.574Z,81.37
2019-02-28T20:50:43.461Z,81.25
2019-02-28T20:53:11.936Z,81.11
2019-02-28T20:55:40.326Z,81.07
2019-02-28T20:58:08.724Z,81.51
2019-02-28T21:00:38.309Z,81.57
2019-02-28T21:03:06.700Z,81.83
2019-02-28T21:05:35.083Z,82.19
2019-02-28T21:08:03.576Z,81.62
2019-02-28T21:10:31.957Z,82.25
2019-02-28T21:13:00.361Z,82.19
2019-02-28T21:15:29.241Z,83.32
2019-02-28T21:17:57.642Z,84.29
2019-02-28T21:20:26.033Z,86.87
2019-02-28T21:22:54.453Z,87.22
2019-02-28T21:25:22.850Z,86.81
2019-02-28T21:27:51.244Z,87.68
2019-02-28T21:30:21.954Z,87.64
2019-02-28T21:32:50.481Z,88.58
2019-02-28T21:35:19.486Z,87.83
2019-02-28T21:37:48.575Z,88.65
2019-02-28T21:40:18.306Z,89.00
2019-02-28T21:42:46.693Z,89.77
2019-02-28T21:45:25.779Z,88.46
2019-02-28T21:47:54.236Z,88.18
2019-02-28T21:50:22.734Z,89.32
2019-02-28T21:52:51.381Z,88.75
2019-02-28T21:55:20.096Z,88.51
2019-02-28T21:57:48.510Z,88.87
2019-02-28T22:00:27.255Z,87.93
2019-02-28T22:02:55.665Z,88.50
2019-02-28T22:05:24.066Z,88.83
2019-02-28T22:07:52.462Z,87.34
2019-02-28T22:10:21.133Z,88.60
2019-02-28T22:12:49.530Z,89.86
2019-02-28T22:15:19.569Z,88.56
2019-02-28T22:17:47.972Z,88.37
2019-02-28T22:20:16.728Z,88.61
2019-02-28T22:22:45.162Z,87.59
2019-02-28T22:25:17.003Z,88.47
2019-02-28T22:27:45.405Z,87.24
2019-02-28T22:30:32.740Z,86.98
2019-02-28T22:33:05.928Z,85.86
2019-02-28T22:35:35.954Z,83.18
2019-02-28T22:38:04.751Z,82.88
2019-02-28T22:40:33.214Z,83.01
2019-02-28T22:43:01.604Z,82.60
2019-02-28T22:45:30.000Z,82.25
2019-02-28T22:47:58.383Z,81.95
2019-02-28T22:50:26.782Z,81.73
2019-02-28T22:52:55.184Z,81.29
2019-02-28T22:55:23.940Z,81.62
2019-02-28T22:57:52.333Z,81.32
2019-02-28T23:00:31.548Z,80.94
2019-02-28T23:02:59.949Z,80.73
2019-02-28T23:05:28.352Z,80.81
2019-02-28T23:07:59.083Z,80.82
2019-02-28T23:10:26.849Z,80.36
2019-02-28T23:12:55.249Z,80.60
2019-02-28T23:15:23.628Z,80.72
2019-02-28T23:17:52.522Z,80.27
2019-02-28T23:20:20.917Z,80.13
2019-02-28T23:22:49.307Z,80.17
2019-02-28T23:25:17.709Z,80.18
2019-02-28T23:27:46.098Z,80.29
2019-02-28T23:30:23.496Z,80.14
2019-02-28T23:32:55.203Z,80.15
2019-02-28T23:35:27.133Z,79.24
2019-02-28T23:37:55.530Z,79.59
2019-02-28T23:40:23.913Z,79.41
2019-02-28T23:42:52.316Z,79.86
2019-02-28T23:45:20.712Z,79.86
2019-02-28T23:47:49.101Z,79.65
2019-02-28T23:50:17.501Z,79.61
2019-02-28T23:52:45.906Z,79.64
2019-02-28T23:55:14.631Z,79.46
2019-02-28T23:57:43.023Z,79.42
